Terminal Aerodrome Forecast
Issued by NWS

Home | Current Version | Previous Version | Graphics & Text | Print | Product List | Glossary On
Versions: 1 2 3 4 5 6 7 8 9 10 11 12 13 14 15 16 17 18 19 20 21 22 23
000
FTUS43 KTOP 151100
TAFFOE
TAF
KFOE 151133Z 1512/1612 20010KT P6SM SCT015 BKN080
     FM151600 35011KT 6SM -RA BR SCT011 BKN022
     FM151900 01013G20KT P6SM SCT030
     FM160100 03003KT P6SM SKC=

USA.gov is the U.S. government's official web portal to all federal, state and local government web resources and services.